Berlin, Germany
Current Conditions -  °F | °C
As of 9:20 PM on Tuesday 21 Oct 2014 (Local Time) from EDDT Reporting Station
Light Rain Light Rain  
Wind Chill: 54°   Ceiling: 3500
Heat Index: 54°   Visibility: 6mi
Dew Point: 48°   Wind: 9mph
Humidity: 82%   Direction: 200°SSW
Pressure: 29.44"   Gusts: NA
Location:  52.52°N, 13.41°E
Report Text: EDDT 211920Z 20008KT 9999 -RA SCT025 BKN035 12/09 Q0997 NOSIG
Loading
Personal Weather Stations






























Interactive Weather Map
Tropical Storm Tracking
New forecast layout! Learn more

10-Day Weather Forecast

Advertisements
Track Severe Weather on mobile